Canadian Empress — VX6095 — position and weather

sailwx.info

Track history (hours):
 
Tides and Currents Weather Stations Pressure Air Temp Water Temp Dewpoint Dewpoint Depression Visibility Wind Speed Wind Dir Waves Ship Positions

Canadian Empress

Last reported at 2016-Jul-24 15:31 UTC. Time now 2016-Jul-26 16:09 UTC.
Position N 46°06' W 072°59'.

Length 32 m.

Type: Passenger vessel. MMSI: 314954012.

Date/timePositionNaut miles runAvg speedWind from/ knotsBaromVisibWave heightAir tempDewpointWater temp
2016-Jul-24 15:31N 46°06' W 072°59'1010.9
2016-Jul-24 14:33N 45°59' W 073°11'1211.9
2016-Jul-24 13:34N 45°49' W 073°19'1212.1
2016-Jul-24 12:33N 45°39' W 073°29'9 0.5
2016-Jul-23 19:04N 45°30' W 073°33'8 2.0
2016-Jul-23 15:18N 45°25' W 073°40'5 6.9
2016-Jul-23 14:33N 45°24' W 073°47'8 7.9
2016-Jul-23 13:33N 45°19' W 073°55'6 5.9
2016-Jul-23 12:31N 45°14' W 074°00'  
2016-Jul-20 00:15N 44°14' W 076°24'1 1.7
2016-Jul-19 23:34N 44°14' W 076°26'2 2.1
2016-Jul-19 22:34N 44°14' W 076°29'0 0.0
2016-Jul-19 21:34N 44°14' W 076°29'0 0.0
2016-Jul-19 20:34N 44°14' W 076°29'0 0.0
2016-Jul-19 19:34N 44°14' W 076°29'0 0.0
2016-Jul-19 18:34N 44°14' W 076°29'0 0.2
2016-Jul-19 17:33N 44°14' W 076°28'  
2016-Jul-15 23:34N 44°13' W 076°31'2 1.7
2016-Jul-15 22:34N 44°14' W 076°29'0 0.0
2016-Jul-15 21:34N 44°14' W 076°29'0 0.0
2016-Jul-15 20:34N 44°14' W 076°29'0 0.0
2016-Jul-15 19:34N 44°14' W 076°29'0 0.0
2016-Jul-15 18:34N 44°14' W 076°29'2 2.0
2016-Jul-15 17:34N 44°14' W 076°26'  
Track history (hours):
 
Tides and Currents Weather Stations Pressure Air Temp Water Temp Dewpoint Dewpoint Depression Visibility Wind Speed Wind Dir Waves Ship Positions

Canadian Empress

Last reported at 2016-Jul-24 15:31 UTC. Time now 2016-Jul-26 16:09 UTC.
Position N 46°06' W 072°59'.

Length 32 m.

Type: Passenger vessel. MMSI: 314954012.

Date/timePositionNaut miles runAvg speedWind from/ knotsBaromVisibWave heightAir tempDewpointWater temp
2016-Jul-24 15:31N 46°06' W 072°59'1010.9
2016-Jul-24 14:33N 45°59' W 073°11'1211.9
2016-Jul-24 13:34N 45°49' W 073°19'1212.1
2016-Jul-24 12:33N 45°39' W 073°29'9 0.5
2016-Jul-23 19:04N 45°30' W 073°33'8 2.0
2016-Jul-23 15:18N 45°25' W 073°40'5 6.9
2016-Jul-23 14:33N 45°24' W 073°47'8 7.9
2016-Jul-23 13:33N 45°19' W 073°55'6 5.9
2016-Jul-23 12:31N 45°14' W 074°00'  
2016-Jul-20 00:15N 44°14' W 076°24'1 1.7
2016-Jul-19 23:34N 44°14' W 076°26'2 2.1
2016-Jul-19 22:34N 44°14' W 076°29'0 0.0
2016-Jul-19 21:34N 44°14' W 076°29'0 0.0
2016-Jul-19 20:34N 44°14' W 076°29'0 0.0
2016-Jul-19 19:34N 44°14' W 076°29'0 0.0
2016-Jul-19 18:34N 44°14' W 076°29'0 0.2
2016-Jul-19 17:33N 44°14' W 076°28'  
2016-Jul-15 23:34N 44°13' W 076°31'2 1.7
2016-Jul-15 22:34N 44°14' W 076°29'0 0.0
2016-Jul-15 21:34N 44°14' W 076°29'0 0.0
2016-Jul-15 20:34N 44°14' W 076°29'0 0.0
2016-Jul-15 19:34N 44°14' W 076°29'0 0.0
2016-Jul-15 18:34N 44°14' W 076°29'2 2.0
2016-Jul-15 17:34N 44°14' W 076°26'  

Dump ship's entire track history